Ouargla, Algeria
Current Conditions -  °F | °C
As of 1:00 PM on Tuesday 27 Jan 2015 (Local Time) from DAUU Reporting Station
Few Clouds Few Clouds  
Wind Chill: 59°   Ceiling: Unl
Heat Index: 59°   Visibility: 6mi
Dew Point: 30°   Wind: 12mph
Humidity: 34%   Direction: 330°NNW
Pressure: 30.24"   Gusts: NA
Location:  31.92°N, 5.4°E
Report Text: DAUU 271200Z 33010KT 9999 FEW046 15/M01 Q1024
Loading
Personal Weather Stations






























Interactive Weather Map New forecast layout! Learn more

10-Day Weather Forecast

Advertisements
Track Severe Weather on mobile